sensor_id;sensor_type;location;lat;lon;timestamp;P1;durP1;ratioP1;P2;durP2;ratioP2
23222;SDS011;11780;13.904;100.620;2023-02-28T00:00:46;44.22;;;34.47;;
23222;SDS011;11780;13.904;100.620;2023-02-28T00:03:17;46.63;;;33.58;;
23222;SDS011;11780;13.904;100.620;2023-02-28T00:05:47;47.75;;;33.80;;
23222;SDS011;11780;13.904;100.620;2023-02-28T00:08:17;42.13;;;32.05;;
23222;SDS011;11780;13.904;100.620;2023-02-28T00:10:47;50.53;;;33.95;;
23222;SDS011;11780;13.904;100.620;2023-02-28T00:13:16;45.67;;;33.13;;
23222;SDS011;11780;13.904;100.620;2023-02-28T00:15:46;43.70;;;32.75;;
23222;SDS011;11780;13.904;100.620;2023-02-28T00:18:16;43.42;;;31.38;;
23222;SDS011;11780;13.904;100.620;2023-02-28T00:20:46;41.03;;;31.33;;
23222;SDS011;11780;13.904;100.620;2023-02-28T00:23:16;42.95;;;32.90;;
23222;SDS011;11780;13.904;100.620;2023-02-28T00:25:46;44.47;;;32.83;;
23222;SDS011;11780;13.904;100.620;2023-02-28T00:28:20;41.00;;;30.98;;
23222;SDS011;11780;13.904;100.620;2023-02-28T00:31:08;46.38;;;31.58;;
23222;SDS011;11780;13.904;100.620;2023-02-28T00:33:38;47.83;;;32.38;;
23222;SDS011;11780;13.904;100.620;2023-02-28T00:36:09;47.47;;;33.55;;
23222;SDS011;11780;13.904;100.620;2023-02-28T00:38:40;42.03;;;31.77;;
23222;SDS011;11780;13.904;100.620;2023-02-28T00:41:11;46.60;;;33.57;;
23222;SDS011;11780;13.904;100.620;2023-02-28T00:43:41;46.20;;;31.35;;
23222;SDS011;11780;13.904;100.620;2023-02-28T00:46:12;44.90;;;32.43;;
23222;SDS011;11780;13.904;100.620;2023-02-28T00:48:42;43.22;;;32.05;;
23222;SDS011;11780;13.904;100.620;2023-02-28T00:51:13;37.90;;;30.40;;
23222;SDS011;11780;13.904;100.620;2023-02-28T00:53:46;44.65;;;32.38;;
23222;SDS011;11780;13.904;100.620;2023-02-28T00:56:29;44.65;;;32.78;;
23222;SDS011;11780;13.904;100.620;2023-02-28T00:58:59;42.25;;;31.20;;
23222;SDS011;11780;13.904;100.620;2023-02-28T01:01:29;40.53;;;32.13;;
23222;SDS011;11780;13.904;100.620;2023-02-28T01:03:59;45.60;;;32.97;;
23222;SDS011;11780;13.904;100.620;2023-02-28T01:06:35;44.05;;;33.20;;
23222;SDS011;11780;13.904;100.620;2023-02-28T01:09:06;44.78;;;33.00;;
23222;SDS011;11780;13.904;100.620;2023-02-28T01:11:37;42.50;;;31.45;;
23222;SDS011;11780;13.904;100.620;2023-02-28T01:14:13;41.05;;;30.88;;
23222;SDS011;11780;13.904;100.620;2023-02-28T01:16:45;41.17;;;31.83;;
23222;SDS011;11780;13.904;100.620;2023-02-28T01:19:15;40.22;;;32.83;;
23222;SDS011;11780;13.904;100.620;2023-02-28T01:21:45;41.17;;;32.45;;
23222;SDS011;11780;13.904;100.620;2023-02-28T01:24:34;37.35;;;30.55;;
23222;SDS011;11780;13.904;100.620;2023-02-28T01:27:04;43.20;;;31.52;;
23222;SDS011;11780;13.904;100.620;2023-02-28T01:29:36;42.97;;;30.88;;
23222;SDS011;11780;13.904;100.620;2023-02-28T01:32:06;38.83;;;30.08;;
23222;SDS011;11780;13.904;100.620;2023-02-28T01:34:51;38.10;;;29.88;;
23222;SDS011;11780;13.904;100.620;2023-02-28T01:37:24;39.08;;;30.85;;
23222;SDS011;11780;13.904;100.620;2023-02-28T01:39:55;37.83;;;29.70;;
23222;SDS011;11780;13.904;100.620;2023-02-28T01:42:25;43.38;;;31.23;;
23222;SDS011;11780;13.904;100.620;2023-02-28T01:48:12;39.28;;;30.38;;
23222;SDS011;11780;13.904;100.620;2023-02-28T01:51:02;41.00;;;30.30;;
23222;SDS011;11780;13.904;100.620;2023-02-28T01:53:45;39.10;;;29.77;;
23222;SDS011;11780;13.904;100.620;2023-02-28T01:56:22;38.50;;;29.77;;
23222;SDS011;11780;13.904;100.620;2023-02-28T01:59:04;42.42;;;30.10;;
23222;SDS011;11780;13.904;100.620;2023-02-28T02:01:34;37.38;;;29.33;;
23222;SDS011;11780;13.904;100.620;2023-02-28T02:04:05;37.90;;;28.80;;
23222;SDS011;11780;13.904;100.620;2023-02-28T02:06:39;37.92;;;30.15;;
23222;SDS011;11780;13.904;100.620;2023-02-28T02:09:12;35.75;;;28.70;;
23222;SDS011;11780;13.904;100.620;2023-02-28T02:11:43;36.97;;;29.87;;
23222;SDS011;11780;13.904;100.620;2023-02-28T02:17:16;39.92;;;28.80;;
23222;SDS011;11780;13.904;100.620;2023-02-28T02:26:10;35.85;;;29.10;;
23222;SDS011;11780;13.904;100.620;2023-02-28T02:34:37;34.53;;;28.02;;
23222;SDS011;11780;13.904;100.620;2023-02-28T02:37:26;34.10;;;28.90;;
23222;SDS011;11780;13.904;100.620;2023-02-28T02:40:43;39.05;;;29.63;;
23222;SDS011;11780;13.904;100.620;2023-02-28T02:43:53;39.17;;;29.50;;
23222;SDS011;11780;13.904;100.620;2023-02-28T02:46:49;36.60;;;28.88;;
23222;SDS011;11780;13.904;100.620;2023-02-28T02:49:43;34.20;;;29.23;;
23222;SDS011;11780;13.904;100.620;2023-02-28T02:52:20;39.72;;;30.23;;
23222;SDS011;11780;13.904;100.620;2023-02-28T02:54:56;36.95;;;30.27;;
23222;SDS011;11780;13.904;100.620;2023-02-28T03:00:03;34.72;;;30.13;;
23222;SDS011;11780;13.904;100.620;2023-02-28T03:02:39;37.75;;;30.25;;
23222;SDS011;11780;13.904;100.620;2023-02-28T03:05:27;40.92;;;28.90;;
23222;SDS011;11780;13.904;100.620;2023-02-28T03:08:03;37.45;;;30.10;;
23222;SDS011;11780;13.904;100.620;2023-02-28T03:10:36;38.63;;;32.55;;
23222;SDS011;11780;13.904;100.620;2023-02-28T03:19:38;37.35;;;31.17;;
23222;SDS011;11780;13.904;100.620;2023-02-28T03:28:49;35.75;;;31.85;;
23222;SDS011;11780;13.904;100.620;2023-02-28T03:32:06;38.47;;;32.35;;
23222;SDS011;11780;13.904;100.620;2023-02-28T03:34:51;39.25;;;31.90;;
23222;SDS011;11780;13.904;100.620;2023-02-28T03:37:29;33.30;;;29.50;;
23222;SDS011;11780;13.904;100.620;2023-02-28T03:40:17;36.70;;;31.58;;
23222;SDS011;11780;13.904;100.620;2023-02-28T03:42:53;42.20;;;31.50;;
23222;SDS011;11780;13.904;100.620;2023-02-28T03:45:30;41.90;;;31.63;;
23222;SDS011;11780;13.904;100.620;2023-02-28T03:48:13;40.05;;;30.40;;
23222;SDS011;11780;13.904;100.620;2023-02-28T03:50:51;39.85;;;30.48;;
23222;SDS011;11780;13.904;100.620;2023-02-28T03:53:46;36.33;;;30.40;;
23222;SDS011;11780;13.904;100.620;2023-02-28T03:56:48;40.35;;;31.88;;
23222;SDS011;11780;13.904;100.620;2023-02-28T03:59:49;33.75;;;28.95;;
23222;SDS011;11780;13.904;100.620;2023-02-28T04:02:51;32.80;;;29.35;;
23222;SDS011;11780;13.904;100.620;2023-02-28T04:07:52;35.47;;;29.33;;
23222;SDS011;11780;13.904;100.620;2023-02-28T04:10:38;37.22;;;29.85;;
23222;SDS011;11780;13.904;100.620;2023-02-28T04:13:26;34.25;;;28.55;;
23222;SDS011;11780;13.904;100.620;2023-02-28T04:15:57;40.50;;;31.30;;
23222;SDS011;11780;13.904;100.620;2023-02-28T04:18:27;36.53;;;28.65;;
23222;SDS011;11780;13.904;100.620;2023-02-28T04:20:59;32.15;;;28.70;;
23222;SDS011;11780;13.904;100.620;2023-02-28T04:23:48;31.27;;;27.83;;
23222;SDS011;11780;13.904;100.620;2023-02-28T04:26:20;34.50;;;28.48;;
23222;SDS011;11780;13.904;100.620;2023-02-28T04:28:50;31.70;;;27.63;;
23222;SDS011;11780;13.904;100.620;2023-02-28T04:31:35;35.90;;;28.75;;
23222;SDS011;11780;13.904;100.620;2023-02-28T04:34:06;35.03;;;28.42;;
23222;SDS011;11780;13.904;100.620;2023-02-28T04:36:54;31.00;;;27.65;;
23222;SDS011;11780;13.904;100.620;2023-02-28T04:39:39;31.20;;;27.70;;
23222;SDS011;11780;13.904;100.620;2023-02-28T04:42:27;37.58;;;29.08;;
23222;SDS011;11780;13.904;100.620;2023-02-28T04:45:04;34.47;;;27.63;;
23222;SDS011;11780;13.904;100.620;2023-02-28T04:47:53;31.23;;;27.77;;
23222;SDS011;11780;13.904;100.620;2023-02-28T04:50:42;35.85;;;28.17;;
23222;SDS011;11780;13.904;100.620;2023-02-28T04:53:13;34.95;;;29.15;;
23222;SDS011;11780;13.904;100.620;2023-02-28T04:55:43;31.75;;;27.90;;
23222;SDS011;11780;13.904;100.620;2023-02-28T04:58:14;36.92;;;27.92;;
23222;SDS011;11780;13.904;100.620;2023-02-28T05:00:45;35.28;;;28.50;;
23222;SDS011;11780;13.904;100.620;2023-02-28T05:03:15;30.35;;;27.05;;
23222;SDS011;11780;13.904;100.620;2023-02-28T05:06:04;32.38;;;27.27;;
23222;SDS011;11780;13.904;100.620;2023-02-28T05:08:50;39.35;;;28.48;;
23222;SDS011;11780;13.904;100.620;2023-02-28T05:11:40;31.92;;;27.75;;
23222;SDS011;11780;13.904;100.620;2023-02-28T05:14:12;31.48;;;27.55;;
23222;SDS011;11780;13.904;100.620;2023-02-28T05:16:43;32.95;;;27.85;;
23222;SDS011;11780;13.904;100.620;2023-02-28T05:19:13;31.00;;;26.63;;
23222;SDS011;11780;13.904;100.620;2023-02-28T05:21:53;35.15;;;26.40;;
23222;SDS011;11780;13.904;100.620;2023-02-28T05:24:39;29.58;;;26.48;;
23222;SDS011;11780;13.904;100.620;2023-02-28T05:27:11;32.60;;;27.65;;
23222;SDS011;11780;13.904;100.620;2023-02-28T05:29:42;33.67;;;28.47;;
23222;SDS011;11780;13.904;100.620;2023-02-28T05:32:14;33.30;;;28.08;;
23222;SDS011;11780;13.904;100.620;2023-02-28T05:34:45;31.92;;;27.38;;
23222;SDS011;11780;13.904;100.620;2023-02-28T05:37:15;30.33;;;26.20;;
23222;SDS011;11780;13.904;100.620;2023-02-28T05:39:45;31.98;;;26.98;;
23222;SDS011;11780;13.904;100.620;2023-02-28T05:42:15;33.90;;;27.55;;
23222;SDS011;11780;13.904;100.620;2023-02-28T05:44:45;35.90;;;26.95;;
23222;SDS011;11780;13.904;100.620;2023-02-28T05:47:15;31.77;;;27.10;;
23222;SDS011;11780;13.904;100.620;2023-02-28T05:49:46;30.13;;;26.92;;
23222;SDS011;11780;13.904;100.620;2023-02-28T05:52:16;30.15;;;27.02;;
23222;SDS011;11780;13.904;100.620;2023-02-28T05:54:47;32.85;;;27.17;;
23222;SDS011;11780;13.904;100.620;2023-02-28T05:57:17;30.38;;;27.05;;
23222;SDS011;11780;13.904;100.620;2023-02-28T05:59:50;31.90;;;27.67;;
23222;SDS011;11780;13.904;100.620;2023-02-28T06:02:39;36.33;;;29.27;;
23222;SDS011;11780;13.904;100.620;2023-02-28T06:05:13;33.20;;;28.77;;
23222;SDS011;11780;13.904;100.620;2023-02-28T06:07:44;32.13;;;28.58;;
23222;SDS011;11780;13.904;100.620;2023-02-28T06:10:15;31.42;;;28.25;;
23222;SDS011;11780;13.904;100.620;2023-02-28T06:12:45;32.22;;;28.10;;
23222;SDS011;11780;13.904;100.620;2023-02-28T06:15:16;33.97;;;28.93;;
23222;SDS011;11780;13.904;100.620;2023-02-28T06:17:46;34.40;;;29.20;;
23222;SDS011;11780;13.904;100.620;2023-02-28T06:20:16;37.60;;;31.00;;
23222;SDS011;11780;13.904;100.620;2023-02-28T06:22:46;36.67;;;29.90;;
23222;SDS011;11780;13.904;100.620;2023-02-28T06:25:16;31.63;;;28.23;;
23222;SDS011;11780;13.904;100.620;2023-02-28T06:28:05;33.33;;;28.80;;
23222;SDS011;11780;13.904;100.620;2023-02-28T06:30:53;34.17;;;29.27;;
23222;SDS011;11780;13.904;100.620;2023-02-28T06:33:42;35.05;;;29.75;;
23222;SDS011;11780;13.904;100.620;2023-02-28T06:36:13;31.90;;;28.10;;
23222;SDS011;11780;13.904;100.620;2023-02-28T06:38:45;32.58;;;28.15;;
23222;SDS011;11780;13.904;100.620;2023-02-28T06:41:54;33.75;;;29.58;;
23222;SDS011;11780;13.904;100.620;2023-02-28T06:44:43;33.15;;;29.55;;
23222;SDS011;11780;13.904;100.620;2023-02-28T06:47:31;33.15;;;29.73;;
23222;SDS011;11780;13.904;100.620;2023-02-28T06:50:01;31.38;;;28.05;;
23222;SDS011;11780;13.904;100.620;2023-02-28T06:52:47;31.23;;;27.85;;
23222;SDS011;11780;13.904;100.620;2023-02-28T06:55:37;32.92;;;29.13;;
23222;SDS011;11780;13.904;100.620;2023-02-28T06:58:26;33.42;;;28.20;;
23222;SDS011;11780;13.904;100.620;2023-02-28T07:01:14;30.70;;;27.50;;
23222;SDS011;11780;13.904;100.620;2023-02-28T07:04:02;31.30;;;28.05;;
23222;SDS011;11780;13.904;100.620;2023-02-28T07:06:50;31.42;;;27.88;;
23222;SDS011;11780;13.904;100.620;2023-02-28T07:09:20;32.25;;;27.73;;
23222;SDS011;11780;13.904;100.620;2023-02-28T07:11:50;31.13;;;26.73;;
23222;SDS011;11780;13.904;100.620;2023-02-28T07:14:38;32.92;;;28.30;;
23222;SDS011;11780;13.904;100.620;2023-02-28T07:17:09;32.38;;;28.42;;
23222;SDS011;11780;13.904;100.620;2023-02-28T07:19:41;31.38;;;28.05;;
23222;SDS011;11780;13.904;100.620;2023-02-28T07:22:11;31.95;;;27.23;;
23222;SDS011;11780;13.904;100.620;2023-02-28T07:24:42;33.20;;;28.15;;
23222;SDS011;11780;13.904;100.620;2023-02-28T07:27:13;30.90;;;27.65;;
23222;SDS011;11780;13.904;100.620;2023-02-28T07:30:11;31.80;;;28.45;;
23222;SDS011;11780;13.904;100.620;2023-02-28T07:32:41;29.70;;;26.57;;
23222;SDS011;11780;13.904;100.620;2023-02-28T07:35:12;30.63;;;26.70;;
23222;SDS011;11780;13.904;100.620;2023-02-28T07:37:44;33.72;;;28.63;;
23222;SDS011;11780;13.904;100.620;2023-02-28T07:40:16;31.45;;;28.05;;
23222;SDS011;11780;13.904;100.620;2023-02-28T07:42:48;31.95;;;27.83;;
23222;SDS011;11780;13.904;100.620;2023-02-28T07:45:18;30.48;;;26.90;;
23222;SDS011;11780;13.904;100.620;2023-02-28T07:47:49;32.07;;;28.57;;
23222;SDS011;11780;13.904;100.620;2023-02-28T07:50:19;32.70;;;28.85;;
23222;SDS011;11780;13.904;100.620;2023-02-28T07:52:51;31.67;;;27.20;;
23222;SDS011;11780;13.904;100.620;2023-02-28T07:55:39;30.98;;;27.60;;
23222;SDS011;11780;13.904;100.620;2023-02-28T07:58:10;32.05;;;28.73;;
23222;SDS011;11780;13.904;100.620;2023-02-28T08:00:55;31.80;;;27.45;;
23222;SDS011;11780;13.904;100.620;2023-02-28T08:03:42;31.88;;;28.27;;
23222;SDS011;11780;13.904;100.620;2023-02-28T08:06:31;31.15;;;27.80;;
23222;SDS011;11780;13.904;100.620;2023-02-28T08:09:02;31.60;;;28.00;;
23222;SDS011;11780;13.904;100.620;2023-02-28T08:11:32;31.40;;;27.33;;
23222;SDS011;11780;13.904;100.620;2023-02-28T08:14:02;31.38;;;27.90;;
23222;SDS011;11780;13.904;100.620;2023-02-28T08:16:50;31.40;;;28.08;;
23222;SDS011;11780;13.904;100.620;2023-02-28T08:19:39;31.25;;;28.10;;
23222;SDS011;11780;13.904;100.620;2023-02-28T08:22:10;31.13;;;27.20;;
23222;SDS011;11780;13.904;100.620;2023-02-28T08:24:41;30.57;;;27.37;;
23222;SDS011;11780;13.904;100.620;2023-02-28T08:27:13;33.97;;;27.55;;
23222;SDS011;11780;13.904;100.620;2023-02-28T08:29:43;31.98;;;27.75;;
23222;SDS011;11780;13.904;100.620;2023-02-28T08:32:13;31.77;;;28.40;;
23222;SDS011;11780;13.904;100.620;2023-02-28T08:34:56;31.17;;;27.92;;
23222;SDS011;11780;13.904;100.620;2023-02-28T08:37:47;31.23;;;27.92;;
23222;SDS011;11780;13.904;100.620;2023-02-28T08:40:18;32.30;;;28.88;;
23222;SDS011;11780;13.904;100.620;2023-02-28T08:42:49;33.15;;;29.63;;
23222;SDS011;11780;13.904;100.620;2023-02-28T08:45:19;30.67;;;27.73;;
23222;SDS011;11780;13.904;100.620;2023-02-28T08:47:49;31.40;;;28.23;;
23222;SDS011;11780;13.904;100.620;2023-02-28T08:50:39;32.15;;;28.58;;
23222;SDS011;11780;13.904;100.620;2023-02-28T08:53:32;31.98;;;28.48;;
23222;SDS011;11780;13.904;100.620;2023-02-28T08:56:20;31.80;;;28.20;;
23222;SDS011;11780;13.904;100.620;2023-02-28T08:59:09;31.73;;;28.40;;
23222;SDS011;11780;13.904;100.620;2023-02-28T09:01:39;34.92;;;28.90;;
23222;SDS011;11780;13.904;100.620;2023-02-28T09:04:29;31.10;;;27.63;;
23222;SDS011;11780;13.904;100.620;2023-02-28T09:07:18;30.48;;;27.38;;
23222;SDS011;11780;13.904;100.620;2023-02-28T09:09:48;29.70;;;26.70;;
23222;SDS011;11780;13.904;100.620;2023-02-28T09:12:25;31.90;;;28.50;;
23222;SDS011;11780;13.904;100.620;2023-02-28T09:17:25;37.22;;;28.92;;
23222;SDS011;11780;13.904;100.620;2023-02-28T09:20:15;32.78;;;28.77;;
23222;SDS011;11780;13.904;100.620;2023-02-28T09:22:45;38.70;;;29.08;;
23222;SDS011;11780;13.904;100.620;2023-02-28T09:25:15;31.83;;;28.20;;
23222;SDS011;11780;13.904;100.620;2023-02-28T09:27:45;30.95;;;27.65;;
23222;SDS011;11780;13.904;100.620;2023-02-28T09:30:15;32.17;;;27.75;;
23222;SDS011;11780;13.904;100.620;2023-02-28T09:32:45;30.17;;;26.38;;
23222;SDS011;11780;13.904;100.620;2023-02-28T09:35:21;31.67;;;28.30;;
23222;SDS011;11780;13.904;100.620;2023-02-28T09:37:53;30.83;;;27.48;;
23222;SDS011;11780;13.904;100.620;2023-02-28T09:43:22;32.33;;;28.58;;
23222;SDS011;11780;13.904;100.620;2023-02-28T09:46:00;29.98;;;26.65;;
23222;SDS011;11780;13.904;100.620;2023-02-28T09:48:53;32.92;;;29.38;;
23222;SDS011;11780;13.904;100.620;2023-02-28T09:54:21;32.20;;;28.20;;
23222;SDS011;11780;13.904;100.620;2023-02-28T09:56:59;35.40;;;27.40;;
23222;SDS011;11780;13.904;100.620;2023-02-28T10:07:30;33.70;;;28.23;;
23222;SDS011;11780;13.904;100.620;2023-02-28T10:17:09;30.05;;;26.85;;
23222;SDS011;11780;13.904;100.620;2023-02-28T10:19:47;30.13;;;27.02;;
23222;SDS011;11780;13.904;100.620;2023-02-28T10:24:56;29.05;;;26.15;;
23222;SDS011;11780;13.904;100.620;2023-02-28T10:27:33;28.65;;;25.63;;
23222;SDS011;11780;13.904;100.620;2023-02-28T10:30:22;28.52;;;25.35;;
23222;SDS011;11780;13.904;100.620;2023-02-28T10:32:52;30.67;;;26.45;;
23222;SDS011;11780;13.904;100.620;2023-02-28T10:35:43;29.75;;;25.42;;
23222;SDS011;11780;13.904;100.620;2023-02-28T10:38:15;31.85;;;26.98;;
23222;SDS011;11780;13.904;100.620;2023-02-28T10:41:03;27.02;;;24.20;;
23222;SDS011;11780;13.904;100.620;2023-02-28T10:43:52;30.90;;;25.38;;
23222;SDS011;11780;13.904;100.620;2023-02-28T10:46:42;30.27;;;25.90;;
23222;SDS011;11780;13.904;100.620;2023-02-28T10:49:28;32.63;;;26.17;;
23222;SDS011;11780;13.904;100.620;2023-02-28T10:51:59;28.77;;;25.67;;
23222;SDS011;11780;13.904;100.620;2023-02-28T10:54:34;28.83;;;25.27;;
23222;SDS011;11780;13.904;100.620;2023-02-28T10:57:17;30.83;;;25.20;;
23222;SDS011;11780;13.904;100.620;2023-02-28T10:59:51;31.08;;;25.20;;
23222;SDS011;11780;13.904;100.620;2023-02-28T11:02:40;29.50;;;24.52;;
23222;SDS011;11780;13.904;100.620;2023-02-28T11:10:46;28.17;;;25.27;;
23222;SDS011;11780;13.904;100.620;2023-02-28T11:13:19;27.73;;;24.83;;
23222;SDS011;11780;13.904;100.620;2023-02-28T11:15:53;27.77;;;24.65;;
23222;SDS011;11780;13.904;100.620;2023-02-28T11:21:15;29.33;;;26.00;;
23222;SDS011;11780;13.904;100.620;2023-02-28T11:27:12;29.92;;;26.58;;
23222;SDS011;11780;13.904;100.620;2023-02-28T11:30:00;29.08;;;26.05;;
23222;SDS011;11780;13.904;100.620;2023-02-28T11:32:30;30.70;;;25.88;;
23222;SDS011;11780;13.904;100.620;2023-02-28T11:35:38;36.80;;;27.55;;
23222;SDS011;11780;13.904;100.620;2023-02-28T11:38:12;33.25;;;25.58;;
23222;SDS011;11780;13.904;100.620;2023-02-28T11:46:50;28.73;;;25.00;;
23222;SDS011;11780;13.904;100.620;2023-02-28T11:52:38;28.88;;;25.75;;
23222;SDS011;11780;13.904;100.620;2023-02-28T11:55:24;31.27;;;26.10;;
23222;SDS011;11780;13.904;100.620;2023-02-28T12:07:16;30.45;;;24.52;;
23222;SDS011;11780;13.904;100.620;2023-02-28T12:23:23;30.20;;;24.77;;
23222;SDS011;11780;13.904;100.620;2023-02-28T12:26:54;27.98;;;23.98;;
23222;SDS011;11780;13.904;100.620;2023-02-28T12:31:55;28.38;;;23.92;;
23222;SDS011;11780;13.904;100.620;2023-02-28T12:34:46;30.17;;;24.92;;
23222;SDS011;11780;13.904;100.620;2023-02-28T12:37:43;28.33;;;24.75;;
23222;SDS011;11780;13.904;100.620;2023-02-28T12:40:20;35.77;;;25.93;;
23222;SDS011;11780;13.904;100.620;2023-02-28T12:42:52;29.38;;;25.88;;
23222;SDS011;11780;13.904;100.620;2023-02-28T12:45:37;27.65;;;24.50;;
23222;SDS011;11780;13.904;100.620;2023-02-28T12:48:40;32.83;;;25.52;;
23222;SDS011;11780;13.904;100.620;2023-02-28T12:51:15;27.13;;;24.15;;
23222;SDS011;11780;13.904;100.620;2023-02-28T12:56:38;28.73;;;24.95;;
23222;SDS011;11780;13.904;100.620;2023-02-28T12:59:20;30.52;;;23.95;;
23222;SDS011;11780;13.904;100.620;2023-02-28T13:43:18;34.80;;;27.95;;
23222;SDS011;11780;13.904;100.620;2023-02-28T13:46:05;31.98;;;26.45;;
23222;SDS011;11780;13.904;100.620;2023-02-28T13:48:51;40.10;;;28.02;;
23222;SDS011;11780;13.904;100.620;2023-02-28T13:51:36;34.45;;;26.88;;
23222;SDS011;11780;13.904;100.620;2023-02-28T14:00:21;39.15;;;29.33;;
23222;SDS011;11780;13.904;100.620;2023-02-28T14:18:04;41.35;;;30.75;;
23222;SDS011;11780;13.904;100.620;2023-02-28T14:24:30;37.45;;;29.10;;
23222;SDS011;11780;13.904;100.620;2023-02-28T14:27:37;38.10;;;31.40;;
23222;SDS011;11780;13.904;100.620;2023-02-28T14:30:37;33.00;;;29.15;;
23222;SDS011;11780;13.904;100.620;2023-02-28T14:33:40;40.65;;;31.40;;
23222;SDS011;11780;13.904;100.620;2023-02-28T14:36:36;39.67;;;31.58;;
23222;SDS011;11780;13.904;100.620;2023-02-28T14:39:25;43.25;;;32.67;;
23222;SDS011;11780;13.904;100.620;2023-02-28T14:42:24;46.70;;;33.70;;
23222;SDS011;11780;13.904;100.620;2023-02-28T14:45:17;40.20;;;32.05;;
23222;SDS011;11780;13.904;100.620;2023-02-28T14:47:55;40.72;;;30.90;;
23222;SDS011;11780;13.904;100.620;2023-02-28T14:50:32;40.13;;;32.65;;
23222;SDS011;11780;13.904;100.620;2023-02-28T14:53:10;42.85;;;33.83;;
23222;SDS011;11780;13.904;100.620;2023-02-28T14:55:53;43.58;;;33.22;;
23222;SDS011;11780;13.904;100.620;2023-02-28T14:58:27;41.30;;;32.45;;
23222;SDS011;11780;13.904;100.620;2023-02-28T15:01:02;41.55;;;32.13;;
23222;SDS011;11780;13.904;100.620;2023-02-28T15:03:37;40.47;;;31.90;;
23222;SDS011;11780;13.904;100.620;2023-02-28T15:06:16;44.08;;;33.85;;
23222;SDS011;11780;13.904;100.620;2023-02-28T15:08:56;47.17;;;34.05;;
23222;SDS011;11780;13.904;100.620;2023-02-28T15:11:41;47.97;;;34.25;;
23222;SDS011;11780;13.904;100.620;2023-02-28T15:14:20;47.28;;;35.65;;
23222;SDS011;11780;13.904;100.620;2023-02-28T15:16:56;55.47;;;36.80;;
23222;SDS011;11780;13.904;100.620;2023-02-28T15:19:34;48.83;;;35.63;;
23222;SDS011;11780;13.904;100.620;2023-02-28T15:22:12;45.25;;;33.75;;
23222;SDS011;11780;13.904;100.620;2023-02-28T15:24:50;48.20;;;33.97;;
23222;SDS011;11780;13.904;100.620;2023-02-28T15:27:28;42.38;;;33.95;;
23222;SDS011;11780;13.904;100.620;2023-02-28T15:30:05;48.40;;;35.72;;
23222;SDS011;11780;13.904;100.620;2023-02-28T15:32:38;51.15;;;35.83;;
23222;SDS011;11780;13.904;100.620;2023-02-28T15:38:15;46.22;;;34.92;;
23222;SDS011;11780;13.904;100.620;2023-02-28T15:40:54;52.67;;;36.53;;
23222;SDS011;11780;13.904;100.620;2023-02-28T15:43:27;50.58;;;36.72;;
23222;SDS011;11780;13.904;100.620;2023-02-28T15:48:36;54.83;;;36.20;;
23222;SDS011;11780;13.904;100.620;2023-02-28T15:54:06;49.92;;;36.70;;
23222;SDS011;11780;13.904;100.620;2023-02-28T15:56:39;56.22;;;38.65;;
23222;SDS011;11780;13.904;100.620;2023-02-28T16:00:02;47.05;;;36.70;;
23222;SDS011;11780;13.904;100.620;2023-02-28T16:02:20;49.50;;;36.80;;
23222;SDS011;11780;13.904;100.620;2023-02-28T16:07:39;56.65;;;37.20;;
23222;SDS011;11780;13.904;100.620;2023-02-28T16:10:12;41.05;;;35.00;;
23222;SDS011;11780;13.904;100.620;2023-02-28T16:12:45;45.70;;;35.50;;
23222;SDS011;11780;13.904;100.620;2023-02-28T16:15:26;46.63;;;35.65;;
23222;SDS011;11780;13.904;100.620;2023-02-28T16:17:58;44.50;;;32.95;;
23222;SDS011;11780;13.904;100.620;2023-02-28T16:20:29;46.22;;;33.33;;
23222;SDS011;11780;13.904;100.620;2023-02-28T16:23:00;50.03;;;34.92;;
23222;SDS011;11780;13.904;100.620;2023-02-28T16:25:39;41.90;;;33.22;;
23222;SDS011;11780;13.904;100.620;2023-02-28T16:28:21;41.53;;;31.85;;
23222;SDS011;11780;13.904;100.620;2023-02-28T16:31:04;42.60;;;31.52;;
23222;SDS011;11780;13.904;100.620;2023-02-28T16:33:36;49.45;;;33.35;;
23222;SDS011;11780;13.904;100.620;2023-02-28T16:36:31;41.97;;;34.63;;
23222;SDS011;11780;13.904;100.620;2023-02-28T16:39:01;42.60;;;32.42;;
23222;SDS011;11780;13.904;100.620;2023-02-28T16:41:32;44.45;;;31.98;;
23222;SDS011;11780;13.904;100.620;2023-02-28T16:44:04;47.17;;;34.15;;
23222;SDS011;11780;13.904;100.620;2023-02-28T16:46:42;44.00;;;32.22;;
23222;SDS011;11780;13.904;100.620;2023-02-28T16:49:12;43.50;;;32.92;;
23222;SDS011;11780;13.904;100.620;2023-02-28T16:51:42;41.33;;;32.28;;
23222;SDS011;11780;13.904;100.620;2023-02-28T16:54:12;50.40;;;33.58;;
23222;SDS011;11780;13.904;100.620;2023-02-28T16:56:46;39.97;;;31.90;;
23222;SDS011;11780;13.904;100.620;2023-02-28T16:59:22;48.25;;;32.83;;
23222;SDS011;11780;13.904;100.620;2023-02-28T17:01:54;42.38;;;32.45;;
23222;SDS011;11780;13.904;100.620;2023-02-28T17:04:46;42.00;;;32.40;;
23222;SDS011;11780;13.904;100.620;2023-02-28T17:07:16;40.40;;;31.95;;
23222;SDS011;11780;13.904;100.620;2023-02-28T17:09:46;45.38;;;32.38;;
23222;SDS011;11780;13.904;100.620;2023-02-28T17:14:49;50.15;;;32.63;;
23222;SDS011;11780;13.904;100.620;2023-02-28T17:17:20;50.72;;;33.53;;
23222;SDS011;11780;13.904;100.620;2023-02-28T17:19:51;42.47;;;32.22;;
23222;SDS011;11780;13.904;100.620;2023-02-28T17:22:21;43.70;;;32.13;;
23222;SDS011;11780;13.904;100.620;2023-02-28T17:24:52;51.67;;;34.97;;
23222;SDS011;11780;13.904;100.620;2023-02-28T17:27:37;55.05;;;33.00;;
23222;SDS011;11780;13.904;100.620;2023-02-28T17:30:21;40.20;;;31.27;;
23222;SDS011;11780;13.904;100.620;2023-02-28T17:33:19;40.35;;;31.42;;
23222;SDS011;11780;13.904;100.620;2023-02-28T17:35:58;39.13;;;30.55;;
23222;SDS011;11780;13.904;100.620;2023-02-28T17:38:41;37.67;;;31.20;;
23222;SDS011;11780;13.904;100.620;2023-02-28T17:41:11;36.47;;;30.65;;
23222;SDS011;11780;13.904;100.620;2023-02-28T17:43:41;41.05;;;30.70;;
23222;SDS011;11780;13.904;100.620;2023-02-28T17:46:16;41.53;;;32.38;;
23222;SDS011;11780;13.904;100.620;2023-02-28T17:48:52;41.95;;;31.83;;
23222;SDS011;11780;13.904;100.620;2023-02-28T17:51:23;42.45;;;31.58;;
23222;SDS011;11780;13.904;100.620;2023-02-28T17:53:54;43.95;;;32.15;;
23222;SDS011;11780;13.904;100.620;2023-02-28T17:56:25;45.70;;;32.30;;
23222;SDS011;11780;13.904;100.620;2023-02-28T17:58:57;47.42;;;32.90;;
23222;SDS011;11780;13.904;100.620;2023-02-28T18:01:27;39.55;;;31.38;;
23222;SDS011;11780;13.904;100.620;2023-02-28T18:03:57;39.67;;;31.02;;
23222;SDS011;11780;13.904;100.620;2023-02-28T18:06:35;38.25;;;31.20;;
23222;SDS011;11780;13.904;100.620;2023-02-28T18:09:20;39.73;;;31.97;;